createdAt,value
2018-04-23T00:00:48.371Z,19.20
2018-04-23T00:03:15.861Z,19.20
2018-04-23T00:05:43.692Z,19.20
2018-04-23T00:08:11.203Z,19.10
2018-04-23T00:10:39.115Z,19.10
2018-04-23T00:13:06.905Z,19.10
2018-04-23T00:15:35.154Z,19.10
2018-04-23T00:18:02.623Z,19.10
2018-04-23T00:20:30.406Z,19.20
2018-04-23T00:22:58.066Z,19.30
2018-04-23T00:25:25.507Z,19.30
2018-04-23T00:27:53.885Z,19.20
2018-04-23T00:30:21.315Z,19.40
2018-04-23T00:32:48.759Z,19.30
2018-04-23T00:35:17.366Z,19.20
2018-04-23T00:37:44.843Z,19.10
2018-04-23T00:40:14.237Z,18.90
2018-04-23T00:42:41.730Z,18.90
2018-04-23T00:45:10.476Z,18.50
2018-04-23T00:47:37.918Z,18.50
2018-04-23T00:50:05.462Z,18.30
2018-04-23T00:52:32.911Z,18.30
2018-04-23T00:55:00.407Z,18.10
2018-04-23T00:57:28.071Z,18.00
2018-04-23T00:59:55.717Z,18.00
2018-04-23T01:02:23.591Z,17.90
2018-04-23T01:04:51.597Z,17.90
2018-04-23T01:07:19.816Z,18.10
2018-04-23T01:09:47.503Z,18.00
2018-04-23T01:12:15.489Z,18.20
2018-04-23T01:14:42.948Z,18.20
2018-04-23T01:17:11.169Z,18.30
2018-04-23T01:19:39.132Z,18.30
2018-04-23T01:22:06.559Z,18.40
2018-04-23T01:24:35.121Z,18.50
2018-04-23T01:27:02.617Z,18.50
2018-04-23T01:29:30.059Z,18.60
2018-04-23T01:31:58.323Z,18.60
2018-04-23T01:34:26.635Z,18.60
2018-04-23T01:36:54.627Z,18.60
2018-04-23T01:39:22.589Z,18.60
2018-04-23T01:41:50.998Z,18.60
2018-04-23T01:44:20.278Z,18.60
2018-04-23T01:46:48.165Z,18.60
2018-04-23T01:49:15.940Z,18.60
2018-04-23T01:51:44.156Z,18.50
2018-04-23T01:54:11.714Z,18.40
2018-04-23T01:56:39.271Z,18.40
2018-04-23T01:59:06.710Z,18.40
2018-04-23T02:01:34.736Z,18.30
2018-04-23T02:04:02.499Z,18.20
2018-04-23T02:06:29.948Z,18.20
2018-04-23T02:08:57.416Z,18.20
2018-04-23T02:11:25.275Z,18.20
2018-04-23T02:13:52.864Z,18.10
2018-04-23T02:16:21.125Z,18.10
2018-04-23T02:18:50.515Z,18.10
2018-04-23T02:21:18.374Z,18.10
2018-04-23T02:23:45.823Z,18.20
2018-04-23T02:26:13.429Z,18.20
2018-04-23T02:28:41.645Z,18.10
2018-04-23T02:31:09.734Z,18.10
2018-04-23T02:33:37.186Z,18.10
2018-04-23T02:36:06.499Z,18.20
2018-04-23T02:38:33.952Z,18.20
2018-04-23T02:41:01.888Z,18.20
2018-04-23T02:43:29.478Z,18.20
2018-04-23T02:45:57.028Z,18.20
2018-04-23T02:48:24.493Z,18.10
2018-04-23T02:50:51.950Z,18.10
2018-04-23T02:53:19.508Z,18.10
2018-04-23T02:55:47.215Z,18.10
2018-04-23T02:58:14.668Z,18.00
2018-04-23T03:00:42.869Z,17.90
2018-04-23T03:03:10.661Z,17.90
2018-04-23T03:05:38.563Z,17.90
2018-04-23T03:08:06.816Z,17.80
2018-04-23T03:10:34.725Z,17.80
2018-04-23T03:13:02.637Z,17.80
2018-04-23T03:15:30.099Z,17.80
2018-04-23T03:17:57.560Z,17.80
2018-04-23T03:20:25.490Z,17.80
2018-04-23T03:22:53.227Z,17.80
2018-04-23T03:25:21.435Z,17.80
2018-04-23T03:27:48.944Z,17.80
2018-04-23T03:30:18.001Z,17.80
2018-04-23T03:32:45.591Z,17.80
2018-04-23T03:35:14.971Z,17.90
2018-04-23T03:37:42.417Z,17.80
2018-04-23T03:40:10.500Z,17.90
2018-04-23T03:42:37.974Z,17.90
2018-04-23T03:45:05.776Z,17.90
2018-04-23T03:47:33.220Z,17.90
2018-04-23T03:50:01.893Z,17.80
2018-04-23T03:52:29.342Z,17.80
2018-04-23T03:54:58.325Z,17.80
2018-04-23T03:57:25.761Z,17.80
2018-04-23T03:59:53.275Z,17.70
2018-04-23T04:02:21.711Z,17.80
2018-04-23T04:04:49.571Z,17.80
2018-04-23T04:07:17.050Z,17.70
2018-04-23T04:09:45.138Z,17.60
2018-04-23T04:12:25.875Z,17.60
2018-04-23T04:15:05.612Z,17.60
2018-04-23T04:20:38.241Z,17.60
2018-04-23T04:23:06.520Z,17.60
2018-04-23T04:25:35.268Z,17.50
2018-04-23T04:28:03.036Z,17.50
2018-04-23T04:30:30.495Z,17.50
2018-04-23T04:32:58.460Z,17.40
2018-04-23T04:35:26.503Z,17.30
2018-04-23T04:37:53.975Z,17.30
2018-04-23T04:40:22.057Z,17.20
2018-04-23T04:42:49.500Z,17.30
2018-04-23T04:45:16.959Z,17.30
2018-04-23T04:47:44.734Z,17.20
2018-04-23T04:50:12.182Z,17.20
2018-04-23T04:52:39.863Z,17.10
2018-04-23T04:55:07.324Z,17.10
2018-04-23T04:57:34.786Z,17.10
2018-04-23T05:00:02.508Z,17.10
2018-04-23T05:02:29.970Z,17.10
2018-04-23T05:04:57.946Z,17.00
2018-04-23T05:07:25.455Z,17.00
2018-04-23T05:09:54.090Z,16.90
2018-04-23T05:12:21.558Z,16.90
2018-04-23T05:14:49.024Z,17.00
2018-04-23T05:17:16.744Z,16.90
2018-04-23T05:19:44.799Z,16.90
2018-04-23T05:22:12.707Z,17.00
2018-04-23T05:24:40.183Z,17.00
2018-04-23T05:27:07.692Z,17.00
2018-04-23T05:29:35.595Z,17.00
2018-04-23T05:32:03.034Z,17.00
2018-04-23T05:34:30.540Z,17.00
2018-04-23T05:36:59.227Z,16.90
2018-04-23T05:39:27.466Z,16.80
2018-04-23T05:41:55.462Z,16.90
2018-04-23T05:44:23.692Z,16.80
2018-04-23T05:46:51.168Z,16.80
2018-04-23T05:49:18.611Z,16.80
2018-04-23T05:51:46.961Z,16.80
2018-04-23T05:54:14.408Z,16.70
2018-04-23T05:56:42.809Z,16.70
2018-04-23T05:59:10.282Z,16.70
2018-04-23T06:01:38.260Z,16.70
2018-04-23T06:04:06.050Z,16.70
2018-04-23T06:06:33.521Z,16.70
2018-04-23T06:09:01.734Z,16.70
2018-04-23T06:11:29.619Z,16.70
2018-04-23T06:13:57.175Z,16.70
2018-04-23T06:16:24.968Z,16.70
2018-04-23T06:18:53.739Z,16.60
2018-04-23T06:21:21.231Z,16.60
2018-04-23T06:23:48.688Z,16.60
2018-04-23T06:26:16.305Z,16.50
2018-04-23T06:28:43.751Z,16.50
2018-04-23T06:31:11.544Z,16.40
2018-04-23T06:33:39.002Z,16.50
2018-04-23T06:36:06.871Z,16.40
2018-04-23T06:38:35.091Z,16.40
2018-04-23T06:41:02.883Z,16.30
2018-04-23T06:43:30.368Z,16.40
2018-04-23T06:45:57.815Z,16.40
2018-04-23T06:48:25.873Z,16.30
2018-04-23T06:50:53.324Z,16.30
2018-04-23T06:53:20.791Z,16.30
2018-04-23T06:55:48.239Z,16.40
2018-04-23T06:58:15.710Z,16.30
2018-04-23T07:00:43.162Z,16.20
2018-04-23T07:03:10.820Z,16.20
2018-04-23T07:05:38.687Z,16.20
2018-04-23T07:08:06.162Z,16.20
2018-04-23T07:10:34.068Z,16.30
2018-04-23T07:13:03.023Z,16.30
2018-04-23T07:15:31.236Z,16.40
2018-04-23T07:17:58.717Z,16.40
2018-04-23T07:20:26.454Z,16.40
2018-04-23T07:22:53.909Z,16.50
2018-04-23T07:25:21.503Z,16.50
2018-04-23T07:27:49.004Z,16.60
2018-04-23T07:30:19.331Z,16.60
2018-04-23T07:32:46.809Z,16.60
2018-04-23T07:35:14.602Z,16.70
2018-04-23T07:37:42.060Z,16.60
2018-04-23T07:40:10.133Z,16.60
2018-04-23T07:42:37.592Z,16.60
2018-04-23T07:45:05.050Z,16.60
2018-04-23T07:47:32.983Z,16.60
2018-04-23T07:50:00.430Z,16.70
2018-04-23T07:52:27.897Z,16.70
2018-04-23T07:54:55.326Z,16.80
2018-04-23T07:57:23.604Z,16.90
2018-04-23T07:59:51.325Z,16.90
2018-04-23T08:02:19.191Z,16.90
2018-04-23T08:04:47.177Z,16.90
2018-04-23T08:07:14.640Z,17.00
2018-04-23T08:09:42.704Z,17.00
2018-04-23T08:12:11.171Z,16.90
2018-04-23T08:14:38.626Z,16.90
2018-04-23T08:17:06.114Z,16.90
2018-04-23T08:19:34.935Z,17.00
2018-04-23T08:22:02.387Z,17.00
2018-04-23T08:24:29.839Z,17.10
2018-04-23T08:26:57.311Z,17.10
2018-04-23T08:29:25.806Z,17.20
2018-04-23T08:31:53.492Z,17.10
2018-04-23T08:34:20.949Z,17.10
2018-04-23T08:36:48.702Z,17.20
2018-04-23T08:39:16.158Z,17.20
2018-04-23T08:41:44.050Z,17.20
2018-04-23T08:44:11.553Z,17.20
2018-04-23T08:46:38.987Z,17.30
2018-04-23T08:49:06.807Z,17.30
2018-04-23T08:51:35.029Z,17.20
2018-04-23T08:54:02.498Z,17.20
2018-04-23T08:56:29.941Z,17.30
2018-04-23T08:58:57.395Z,17.40
2018-04-23T09:01:25.000Z,17.50
2018-04-23T09:03:52.978Z,17.60
2018-04-23T09:06:20.421Z,17.60
2018-04-23T09:08:47.911Z,17.60
2018-04-23T09:11:15.907Z,17.70
2018-04-23T09:13:43.372Z,17.70
2018-04-23T09:16:10.810Z,17.70
2018-04-23T09:18:39.446Z,17.70
2018-04-23T09:21:06.979Z,17.60
2018-04-23T09:23:34.436Z,17.60
2018-04-23T09:26:02.020Z,17.50
2018-04-23T09:28:29.604Z,17.40
2018-04-23T09:30:57.426Z,17.40
2018-04-23T09:33:24.875Z,17.40
2018-04-23T09:35:52.872Z,17.40
2018-04-23T09:38:20.956Z,17.40
2018-04-23T09:40:49.046Z,17.50
2018-04-23T09:43:17.262Z,17.70
2018-04-23T09:45:44.721Z,17.70
2018-04-23T09:48:12.166Z,17.80
2018-04-23T09:50:39.660Z,17.90
2018-04-23T09:53:07.104Z,18.00
2018-04-23T09:55:34.586Z,18.20
2018-04-23T09:58:02.032Z,18.40
2018-04-23T10:00:31.534Z,18.50
2018-04-23T10:02:58.958Z,18.60
2018-04-23T10:05:26.759Z,18.70
2018-04-23T10:07:54.280Z,18.80
2018-04-23T10:10:22.198Z,19.00
2018-04-23T10:12:49.754Z,19.10
2018-04-23T10:15:17.237Z,19.10
2018-04-23T10:17:45.431Z,18.90
2018-04-23T10:20:13.159Z,18.90
2018-04-23T10:22:41.363Z,18.70
2018-04-23T10:25:08.982Z,18.70
2018-04-23T10:27:36.423Z,18.60
2018-04-23T10:30:04.107Z,18.60
2018-04-23T10:32:31.860Z,18.60
2018-04-23T10:35:01.486Z,18.70
2018-04-23T10:37:29.424Z,18.60
2018-04-23T10:39:57.409Z,18.70
2018-04-23T10:42:24.842Z,18.60
2018-04-23T10:44:52.307Z,18.60
2018-04-23T10:47:19.756Z,18.60
2018-04-23T10:49:47.239Z,18.50
2018-04-23T10:52:14.983Z,18.60
2018-04-23T10:54:43.231Z,18.70
2018-04-23T10:57:10.819Z,18.70
2018-04-23T10:59:38.607Z,18.80
2018-04-23T11:02:06.055Z,18.80
2018-04-23T11:04:34.007Z,18.90
2018-04-23T11:07:01.788Z,18.90
2018-04-23T11:09:29.739Z,19.00
2018-04-23T11:11:57.203Z,19.10
2018-04-23T11:14:24.635Z,19.20
2018-04-23T11:16:52.115Z,19.40
2018-04-23T11:19:19.872Z,19.50
2018-04-23T11:21:47.420Z,19.60
2018-04-23T11:24:14.855Z,19.70
2018-04-23T11:26:42.560Z,19.90
2018-04-23T11:29:10.754Z,20.10
2018-04-23T11:31:39.402Z,20.30
2018-04-23T11:34:07.069Z,20.20
2018-04-23T11:36:34.855Z,20.40
2018-04-23T11:39:03.062Z,20.40
2018-04-23T11:41:31.992Z,20.40
2018-04-23T11:43:59.463Z,20.40
2018-04-23T11:46:28.523Z,20.10
2018-04-23T11:48:55.976Z,20.10
2018-04-23T11:51:23.426Z,19.90
2018-04-23T11:53:50.915Z,19.80
2018-04-23T11:56:18.423Z,19.70
2018-04-23T11:58:45.942Z,19.60
2018-04-23T12:01:13.456Z,19.50
2018-04-23T12:03:41.373Z,19.60
2018-04-23T12:06:09.429Z,19.80
2018-04-23T12:08:36.906Z,20.00
2018-04-23T12:11:04.639Z,20.10
2018-04-23T12:13:32.112Z,20.20
2018-04-23T12:16:00.331Z,20.60
2018-04-23T12:18:28.133Z,20.60
2018-04-23T12:20:55.846Z,20.80
2018-04-23T12:23:24.116Z,20.90
2018-04-23T12:25:52.323Z,20.90
2018-04-23T12:28:19.777Z,20.90
2018-04-23T12:30:47.385Z,21.00
2018-04-23T12:33:15.084Z,21.10
2018-04-23T12:35:42.997Z,21.10
2018-04-23T12:38:10.447Z,21.20
2018-04-23T12:40:38.237Z,21.30
2018-04-23T12:43:05.683Z,21.50
2018-04-23T12:45:33.562Z,21.90
2018-04-23T12:48:01.000Z,22.10
2018-04-23T12:50:28.527Z,22.10
2018-04-23T12:52:55.981Z,22.00
2018-04-23T12:55:23.688Z,22.10
2018-04-23T12:57:51.139Z,22.20
2018-04-23T13:00:18.740Z,22.10
2018-04-23T13:02:46.952Z,22.10
2018-04-23T13:05:14.823Z,22.10
2018-04-23T13:07:42.267Z,22.00
2018-04-23T13:10:10.084Z,21.90
2018-04-23T13:12:38.287Z,21.80
2018-04-23T13:15:05.884Z,21.80
2018-04-23T13:17:33.947Z,21.90
2018-04-23T13:20:01.929Z,22.10
2018-04-23T13:22:29.809Z,22.20
2018-04-23T13:24:57.243Z,22.30
2018-04-23T13:27:24.907Z,22.40
2018-04-23T13:29:52.468Z,22.50
2018-04-23T13:32:20.453Z,22.60
2018-04-23T13:34:48.510Z,22.60
2018-04-23T13:37:15.978Z,22.60
2018-04-23T13:39:44.211Z,22.50
2018-04-23T13:42:12.133Z,22.40
2018-04-23T13:44:39.589Z,22.50
2018-04-23T13:47:07.088Z,22.50
2018-04-23T13:49:34.547Z,22.50
2018-04-23T13:52:01.996Z,22.50
2018-04-23T13:54:29.459Z,22.70
2018-04-23T13:56:56.904Z,22.70
2018-04-23T13:59:24.446Z,22.70
2018-04-23T14:01:53.189Z,22.70
2018-04-23T14:04:21.067Z,22.70
2018-04-23T14:06:48.519Z,22.70
2018-04-23T14:09:16.043Z,22.70
2018-04-23T14:11:43.834Z,23.00
2018-04-23T14:14:11.331Z,23.10
2018-04-23T14:16:39.532Z,23.10
2018-04-23T14:19:07.757Z,23.10
2018-04-23T14:21:35.222Z,22.90
2018-04-23T14:24:04.224Z,22.40
2018-04-23T14:26:31.670Z,22.40
2018-04-23T14:28:59.107Z,22.20
2018-04-23T14:31:27.075Z,22.20
2018-04-23T14:33:54.944Z,22.20
2018-04-23T14:36:22.910Z,22.10
2018-04-23T14:38:50.353Z,22.20
2018-04-23T14:41:18.329Z,22.00
2018-04-23T14:43:45.773Z,21.80
2018-04-23T14:46:13.234Z,21.70
2018-04-23T14:48:40.667Z,21.70
2018-04-23T14:51:08.205Z,21.60
2018-04-23T14:53:36.408Z,21.40
2018-04-23T14:56:03.881Z,21.40
2018-04-23T14:58:31.322Z,21.40
2018-04-23T15:00:59.237Z,21.40
2018-04-23T15:03:26.970Z,21.40
2018-04-23T15:05:54.858Z,21.50
2018-04-23T15:08:22.734Z,21.40
2018-04-23T15:10:50.440Z,21.30
2018-04-23T15:13:17.898Z,21.20
2018-04-23T15:15:45.350Z,21.00
2018-04-23T15:18:13.483Z,20.90
2018-04-23T15:20:41.687Z,20.50
2018-04-23T15:23:09.170Z,20.50
2018-04-23T15:25:36.628Z,20.50
2018-04-23T15:28:04.069Z,20.30
2018-04-23T15:30:31.681Z,20.30
2018-04-23T15:32:59.523Z,20.20
2018-04-23T15:35:27.605Z,20.10
2018-04-23T15:37:55.089Z,20.10
2018-04-23T15:40:23.906Z,19.90
2018-04-23T15:42:51.386Z,19.90
2018-04-23T15:45:18.896Z,19.80
2018-04-23T15:47:47.103Z,19.80
2018-04-23T15:50:14.574Z,19.80
2018-04-23T15:52:42.006Z,19.80
2018-04-23T15:55:09.793Z,19.70
2018-04-23T15:57:37.279Z,19.80
2018-04-23T16:00:06.672Z,19.70
2018-04-23T16:02:34.117Z,19.80
2018-04-23T16:05:02.062Z,19.80
2018-04-23T16:07:29.527Z,19.80
2018-04-23T16:09:57.452Z,19.90
2018-04-23T16:12:25.760Z,20.00
2018-04-23T16:14:53.261Z,20.00
2018-04-23T16:17:20.740Z,20.10
2018-04-23T16:19:49.285Z,20.30
2018-04-23T16:22:16.812Z,20.30
2018-04-23T16:24:44.428Z,20.30
2018-04-23T16:27:12.320Z,20.10
2018-04-23T16:29:39.773Z,20.20
2018-04-23T16:32:08.175Z,20.20
2018-04-23T16:34:36.077Z,20.20
2018-04-23T16:37:03.941Z,20.10
2018-04-23T16:39:31.393Z,20.20
2018-04-23T16:41:59.271Z,20.20
2018-04-23T16:44:27.170Z,20.30
2018-04-23T16:46:54.270Z,20.40
2018-04-23T16:49:21.700Z,20.40
2018-04-23T16:51:49.148Z,20.30
2018-04-23T16:54:16.745Z,20.20
2018-04-23T16:56:44.844Z,20.10
2018-04-23T16:59:12.290Z,19.90
2018-04-23T17:01:41.266Z,19.90
2018-04-23T17:04:09.232Z,19.90
2018-04-23T17:06:36.704Z,19.90
2018-04-23T17:09:04.154Z,19.90
2018-04-23T17:11:32.086Z,19.70
2018-04-23T17:13:59.548Z,19.70
2018-04-23T17:16:27.119Z,19.70
2018-04-23T17:18:55.105Z,19.60
2018-04-23T17:21:22.586Z,19.50
2018-04-23T17:23:50.120Z,19.50
2018-04-23T17:26:17.655Z,19.40
2018-04-23T17:28:45.409Z,19.40
2018-04-23T17:31:12.862Z,19.50
2018-04-23T17:33:42.205Z,19.50
2018-04-23T17:36:10.036Z,19.50
2018-04-23T17:38:37.510Z,19.50
2018-04-23T17:41:05.457Z,19.50
2018-04-23T17:43:32.912Z,19.60
2018-04-23T17:46:00.381Z,19.60
2018-04-23T17:48:27.813Z,19.60
2018-04-23T17:50:55.278Z,19.60
2018-04-23T17:53:23.089Z,19.50
2018-04-23T17:55:51.164Z,19.40
2018-04-23T17:58:20.117Z,19.20
2018-04-23T18:00:47.614Z,19.20
2018-04-23T18:03:15.685Z,19.00
2018-04-23T18:05:44.142Z,18.70
2018-04-23T18:08:11.597Z,18.70
2018-04-23T18:10:39.402Z,18.60
2018-04-23T18:13:08.069Z,18.40
2018-04-23T18:15:36.335Z,18.40
2018-04-23T18:18:03.784Z,18.40
2018-04-23T18:20:31.559Z,18.40
2018-04-23T18:22:59.770Z,18.40
2018-04-23T18:25:27.992Z,18.30
2018-04-23T18:27:55.430Z,18.30
2018-04-23T18:30:23.194Z,18.30
2018-04-23T18:32:50.634Z,18.20
2018-04-23T18:35:18.572Z,18.10
2018-04-23T18:37:46.802Z,18.00
2018-04-23T18:40:14.799Z,18.00
2018-04-23T18:42:42.272Z,18.00
2018-04-23T18:45:10.513Z,18.00
2018-04-23T18:47:38.066Z,18.00
2018-04-23T18:50:05.651Z,18.10
2018-04-23T18:52:33.876Z,18.10
2018-04-23T18:55:01.542Z,18.10
2018-04-23T18:57:29.010Z,18.10
2018-04-23T18:59:56.497Z,18.10
2018-04-23T19:02:24.223Z,18.00
2018-04-23T19:04:52.286Z,18.00
2018-04-23T19:07:20.496Z,17.90
2018-04-23T19:09:48.617Z,17.90
2018-04-23T19:12:16.566Z,17.80
2018-04-23T19:14:44.198Z,17.70
2018-04-23T19:17:11.592Z,17.70
2018-04-23T19:19:40.308Z,17.70
2018-04-23T19:22:07.882Z,17.60
2018-04-23T19:24:35.434Z,17.70
2018-04-23T19:27:03.795Z,17.60
2018-04-23T19:29:31.492Z,17.70
2018-04-23T19:31:58.960Z,17.70
2018-04-23T19:34:27.020Z,17.70
2018-04-23T19:36:55.276Z,17.70
2018-04-23T19:39:22.721Z,17.70
2018-04-23T19:41:50.627Z,17.70
2018-04-23T19:44:18.716Z,17.70
2018-04-23T19:46:46.957Z,17.60
2018-04-23T19:49:14.417Z,17.60
2018-04-23T19:51:41.965Z,17.60
2018-04-23T19:54:09.820Z,17.60
2018-04-23T19:56:37.331Z,17.60
2018-04-23T19:59:05.895Z,17.60
2018-04-23T20:01:34.154Z,17.60
2018-04-23T20:04:02.135Z,17.60
2018-04-23T20:06:29.569Z,17.50
2018-04-23T20:08:57.140Z,17.50
2018-04-23T20:11:24.964Z,17.50
2018-04-23T20:13:52.464Z,17.50
2018-04-23T20:16:20.336Z,17.40
2018-04-23T20:18:48.218Z,17.40
2018-04-23T20:21:15.662Z,17.40
2018-04-23T20:23:43.179Z,17.30
2018-04-23T20:26:10.975Z,17.30
2018-04-23T20:28:38.639Z,17.10
2018-04-23T20:31:06.107Z,17.10
2018-04-23T20:33:34.074Z,17.00
2018-04-23T20:36:02.194Z,17.00
2018-04-23T20:38:29.662Z,16.90
2018-04-23T20:40:57.467Z,16.90
2018-04-23T20:43:24.943Z,16.80
2018-04-23T20:45:53.176Z,16.60
2018-04-23T20:48:20.991Z,16.60
2018-04-23T20:50:49.746Z,16.60
2018-04-23T20:53:17.190Z,16.50
2018-04-23T20:55:45.276Z,16.50
2018-04-23T20:58:12.727Z,16.50
2018-04-23T21:00:40.248Z,16.50
2018-04-23T21:03:08.178Z,16.50
2018-04-23T21:05:36.933Z,16.50
2018-04-23T21:08:04.347Z,16.40
2018-04-23T21:10:32.983Z,16.40
2018-04-23T21:13:00.413Z,16.40
2018-04-23T21:15:27.860Z,16.40
2018-04-23T21:17:55.362Z,16.30
2018-04-23T21:20:23.426Z,16.20
2018-04-23T21:22:51.405Z,16.20
2018-04-23T21:25:18.903Z,16.20
2018-04-23T21:27:47.033Z,16.10
2018-04-23T21:30:14.894Z,16.00
2018-04-23T21:32:42.540Z,16.00
2018-04-23T21:35:10.552Z,15.90
2018-04-23T21:37:38.960Z,15.80
2018-04-23T21:40:06.718Z,15.80
2018-04-23T21:42:34.179Z,15.80
2018-04-23T21:45:02.390Z,15.70
2018-04-23T21:47:31.447Z,15.60
2018-04-23T21:49:59.560Z,15.60
2018-04-23T21:52:26.991Z,15.60
2018-04-23T21:54:54.454Z,15.50
2018-04-23T21:57:21.894Z,15.50
2018-04-23T21:59:49.990Z,15.50
2018-04-23T22:02:17.449Z,15.50
2018-04-23T22:04:45.519Z,15.40
2018-04-23T22:07:12.963Z,15.40
2018-04-23T22:09:41.660Z,15.30
2018-04-23T22:12:09.456Z,15.30
2018-04-23T22:14:37.695Z,15.30
2018-04-23T22:17:05.153Z,15.20
2018-04-23T22:19:32.918Z,15.20
2018-04-23T22:22:00.371Z,15.10
2018-04-23T22:24:27.935Z,15.10
2018-04-23T22:26:55.399Z,15.10
2018-04-23T22:29:23.254Z,15.10
2018-04-23T22:31:50.700Z,15.10
2018-04-23T22:34:18.273Z,15.00
2018-04-23T22:36:46.338Z,15.00
2018-04-23T22:39:13.778Z,15.10
2018-04-23T22:41:41.794Z,15.00
2018-04-23T22:44:10.011Z,14.90
2018-04-23T22:46:37.472Z,14.90
2018-04-23T22:49:05.259Z,14.90
2018-04-23T22:51:32.733Z,14.90
2018-04-23T22:54:00.200Z,14.90
2018-04-23T22:56:27.840Z,14.80
2018-04-23T22:58:55.316Z,14.80
2018-04-23T23:01:23.744Z,14.80
2018-04-23T23:03:51.678Z,14.80
2018-04-23T23:06:19.904Z,14.80
2018-04-23T23:08:47.365Z,14.70
2018-04-23T23:11:15.267Z,14.80
2018-04-23T23:13:43.497Z,14.80
2018-04-23T23:16:10.976Z,14.70
2018-04-23T23:18:38.736Z,14.80
2018-04-23T23:21:06.206Z,14.70
2018-04-23T23:23:33.659Z,14.70
2018-04-23T23:26:01.149Z,14.70
2018-04-23T23:28:29.346Z,14.60
2018-04-23T23:30:57.034Z,14.60
2018-04-23T23:33:24.463Z,14.60
2018-04-23T23:35:52.242Z,14.60
2018-04-23T23:38:19.933Z,14.70
2018-04-23T23:40:47.894Z,14.70
2018-04-23T23:43:15.555Z,14.70
2018-04-23T23:45:43.423Z,14.70
2018-04-23T23:48:10.878Z,14.70
2018-04-23T23:50:39.269Z,14.70
2018-04-23T23:53:06.730Z,14.70
2018-04-23T23:55:35.380Z,14.70
2018-04-23T23:58:02.817Z,14.70
